Header
Header
Login
Login
Mot de passe oublié ?
Inscription
Popup
Popup

Balises

Balise Popup
Balise Popup
Encadré
Citation Caché:  Caché
Grand Petit Important
Italique xExposant xIndice
Surligné Souligné Barré
Police fixe Espace insecable Énigme du mois
T.I.E. T.O.E. Mini tournoi
Fermer
Popup
Popup

Smileys

Smileys Popup
Smileys Popup
[:piment1:] [:piment2:] [:piment3:] [:piment4:] [:chouette:] [:indice:] [:indices:] [:cle:] [:cadenas:]
[:)] [;)] [:(] [:o] [8O] [:?] [:D] [8)] [:x]
[:!:] [:?:] [:lol:] [:lol2:] [:lol3:] [:mdr:] [:ptdr:] [:aime:] [:aime2:]
[:wink:] [:smile:] [:smile2:] [:smile3:] [:pong:] [:cool:] [:mefi2:] [:eton:] [:eton2:]
[:eton3:] [:eton4:] [:eton5:] [:eton6:] [:eton7:] [:ftg:] [:zzz2:] [:des:] [:hlp:]
[:fou:] [:fou2:] [:fou3:] [:red:] [:red2:] [:fache:] [:fache2:] [:furib:] [:rale:]
[:ange2:] [:mefi:] [:plr2:] [:bravo3:] [:bravo4:] [:clown:] [:fete2:]
[:bravo:] [:bravo2:] [:ange:] [:mrt:] [:zzz:]
[:fete:] [:idee:] [:coucou:] [:plr:] [:mrt2:] [:vio:] [:feu3:]
[:feu:] [:alter:] [:feu2:] [:boire:]
Fermer
Popup
Popup

Couleur du texte

Color Picker
Color Picker
Fermer
Page
Page
Widget
Contenu

Les Énigmes

Widget
Contenu

Les Tavernes

Menu Haut
Menu Haut
Mode d'emploi Rechercher Imprimer
Message
Message

Merci de confirmer votre choix !

Titre
Titre

N° 611 - Le Pays Ciel - Monde 5-4 [MARIO]

par Nivek

Précédente Guilde interdite Suivante
Les aventures inédites de Super Mario (Auteur : Nivek
Modérateur : Rico)

Qui n'a jamais joué, ne serait-ce qu'une fois, à Mario ? Si ça ne vous est jamais arrivé, voilà de quoi rattrapper cette lacune ! Si vous avez éclusé toutes ses aventures, voici de quoi vous réjouir, car Mario est reparti à la visite des nombreux mondes qui peuplent les divers Pays !

En effet, le soleil se lève sur les montagnes à l'horizon, éclairant de ses rayons le château endormi.

Alors qu'il était tranquillement en train de se promener en se disant que c'était une bien belle journée pour aller réparer des robinets, Mario entend le cri strident - et habituel - de la princesse Peach résonner dans le lointain...
611


Après une courte pause sur le sol du Pays Ciel, notre habile personnage s'envole et se faufille de nuages en nuages, à la recherche de cette fichue sortie...

"Si je vais par là, je vais devoir traverser ces nuages inquiétants, ce n'est peut-être pas le choix le plus intelligent... Bon, de l'autre côté, ce n'est guère plus rassurant : je vais devenir de la bruine légère avec ces stratus... " se plaint-il. "Il serait plus judicieux de se faire aider par quelqu'un... Ah ben qui voilà ! Hélico Yoshi ! "

Un hélicoptère équipé d'un gros nez rouge fait son apparition à travers une couche de cirrus.

"Hello Yoshi ! Tu peux voir où se situe le chateau de Browser ?

" Ok, attends, je prends de la hauteur... Bon je pense que c'est par là, le nord, c'est... SLTR 231800Z 34014KT 7000 FEW023 36/21 Q1007, et si tu vas à l'Ouest, ce sera SLCB 231800Z 10005KT 8000 FEW030 BKN200 28/03 Q1019. Bon, aussi, je crois voir quelque chose à l'Est, dans ce cas, c'est plutôt : SLET 231800Z 33015G25KT 1500 FU FEW020 BKN200 33/21 Q1008. Ou alors le Sud, bon alors dans ce cas, je crois que...SLSU 231800Z 03015KT 9999 FEW023 21/05 Q1024".

Ayant tout bien écouté, notre héros est rassuré : elle n'est pas là ! C'est qu'elle aurait pu jeter un sacré froid dans cette histoire... Qui est-elle ?
Le 25/12/11 : Vous avez vu, elle n'est pas là !
Le 11/05/13 : Si je ne cite pas le personnage, ce n'est pas pour rien.
Vous devez vous connecter pour répondre.
  1. Nivek (08/10/10)
  2. Rico (10/10/10)
  3. Berek (16/12/11)
  4. 13or (15/01/12)
  5. Manumero (28/06/12)
  6. Scrablor (13/05/13)

Widget
Contenu

Inscription

Amateurs de jeux de sagacité ?
Rejoignez les 18121 inscrits : Inscription.